createdAt,value
2018-07-08T00:00:57.833Z,1.80
2018-07-08T00:03:00.075Z,2.10
2018-07-08T00:05:02.296Z,1.90
2018-07-08T00:07:04.548Z,1.87
2018-07-08T00:09:07.002Z,1.97
2018-07-08T00:11:09.374Z,2.00
2018-07-08T00:13:11.619Z,2.10
2018-07-08T00:15:13.883Z,2.17
2018-07-08T00:17:16.098Z,2.30
2018-07-08T00:19:18.570Z,2.30
2018-07-08T00:21:20.822Z,2.47
2018-07-08T00:23:24.157Z,2.10
2018-07-08T00:25:26.496Z,2.50
2018-07-08T00:27:28.723Z,2.90
2018-07-08T00:29:33.596Z,3.07
2018-07-08T00:31:37.668Z,2.90
2018-07-08T00:33:39.976Z,3.20
2018-07-08T00:35:42.488Z,3.30
2018-07-08T00:37:44.681Z,3.37
2018-07-08T00:39:46.960Z,3.20
2018-07-08T00:41:50.096Z,3.30
2018-07-08T00:43:53.036Z,3.50
2018-07-08T00:45:55.242Z,4.10
2018-07-08T00:47:57.927Z,4.40
2018-07-08T00:50:00.454Z,3.57
2018-07-08T00:52:02.662Z,3.73
2018-07-08T00:54:04.979Z,4.20
2018-07-08T00:56:07.569Z,3.40
2018-07-08T00:58:10.212Z,3.67
2018-07-08T01:00:18.003Z,4.10
2018-07-08T01:02:20.826Z,3.90
2018-07-08T01:04:23.557Z,3.90
2018-07-08T01:06:25.784Z,4.17
2018-07-08T01:08:28.075Z,3.57
2018-07-08T01:10:30.355Z,4.00
2018-07-08T01:12:32.527Z,4.13
2018-07-08T01:14:34.812Z,3.47
2018-07-08T01:16:37.381Z,3.60
2018-07-08T01:18:39.620Z,3.70
2018-07-08T01:20:41.894Z,4.20
2018-07-08T01:22:44.308Z,4.00
2018-07-08T01:24:46.481Z,4.33
2018-07-08T01:26:48.675Z,3.60
2018-07-08T01:28:51.025Z,3.73
2018-07-08T01:30:53.287Z,3.67
2018-07-08T01:32:55.663Z,3.90
2018-07-08T01:34:58.869Z,3.90
2018-07-08T01:37:01.274Z,4.20
2018-07-08T01:39:03.871Z,4.13
2018-07-08T01:41:06.352Z,3.93
2018-07-08T01:43:08.550Z,4.37
2018-07-08T01:45:11.630Z,3.90
2018-07-08T01:47:13.967Z,4.00
2018-07-08T01:49:16.272Z,4.20
2018-07-08T01:51:18.507Z,3.70
2018-07-08T01:53:21.174Z,4.40
2018-07-08T01:55:23.567Z,4.30
2018-07-08T01:57:25.878Z,4.27
2018-07-08T01:59:28.072Z,3.97
2018-07-08T02:01:30.305Z,3.83
2018-07-08T02:03:32.526Z,4.17
2018-07-08T02:05:34.771Z,3.67
2018-07-08T02:07:37.363Z,3.90
2018-07-08T02:09:39.578Z,3.63
2018-07-08T02:11:41.815Z,3.80
2018-07-08T02:13:44.107Z,4.20
2018-07-08T02:15:46.346Z,3.73
2018-07-08T02:17:48.568Z,3.77
2018-07-08T02:19:50.757Z,4.00
2018-07-08T02:21:53.250Z,3.47
2018-07-08T02:23:55.514Z,4.00
2018-07-08T02:25:57.697Z,3.97
2018-07-08T02:27:59.927Z,3.80
2018-07-08T02:30:02.174Z,3.60
2018-07-08T02:32:04.385Z,3.40
2018-07-08T02:34:06.604Z,3.63
2018-07-08T02:36:08.787Z,3.73
2018-07-08T02:38:11.123Z,3.80
2018-07-08T02:40:13.365Z,4.23
2018-07-08T02:42:15.910Z,3.20
2018-07-08T02:44:18.374Z,4.00
2018-07-08T02:46:20.846Z,3.87
2018-07-08T02:48:23.074Z,3.63
2018-07-08T02:50:25.407Z,3.20
2018-07-08T02:52:27.857Z,3.70
2018-07-08T02:54:30.998Z,3.30
2018-07-08T02:56:33.179Z,3.70
2018-07-08T02:58:35.364Z,3.70
2018-07-08T03:00:37.562Z,3.50
2018-07-08T03:02:39.797Z,3.37
2018-07-08T03:04:42.769Z,3.50
2018-07-08T03:06:44.978Z,3.30
2018-07-08T03:08:47.208Z,3.77
2018-07-08T03:10:49.513Z,3.33
2018-07-08T03:12:52.359Z,3.57
2018-07-08T03:14:54.582Z,3.60
2018-07-08T03:16:56.770Z,2.87
2018-07-08T03:18:59.187Z,3.30
2018-07-08T03:21:01.372Z,3.40
2018-07-08T03:23:03.688Z,3.50
2018-07-08T03:25:06.015Z,3.27
2018-07-08T03:27:08.254Z,3.40
2018-07-08T03:29:10.487Z,3.47
2018-07-08T03:31:12.705Z,3.60
2018-07-08T03:33:14.950Z,3.47
2018-07-08T03:35:17.183Z,3.13
2018-07-08T03:37:19.380Z,3.30
2018-07-08T03:39:21.625Z,3.40
2018-07-08T03:41:23.844Z,3.17
2018-07-08T03:43:26.115Z,2.87
2018-07-08T03:45:28.427Z,3.13
2018-07-08T03:47:30.648Z,3.00
2018-07-08T03:49:32.941Z,2.90
2018-07-08T03:51:35.167Z,2.80
2018-07-08T03:53:37.372Z,2.90
2018-07-08T03:55:39.607Z,3.40
2018-07-08T03:57:41.866Z,2.90
2018-07-08T03:59:44.176Z,3.10
2018-07-08T04:01:46.539Z,2.90
2018-07-08T04:03:48.853Z,2.60
2018-07-08T04:05:51.065Z,2.93
2018-07-08T04:07:53.782Z,3.00
2018-07-08T04:09:56.071Z,3.00
2018-07-08T04:11:58.278Z,3.30
2018-07-08T04:14:00.474Z,2.87
2018-07-08T04:16:02.727Z,2.70
2018-07-08T04:18:09.884Z,2.83
2018-07-08T04:20:12.126Z,2.87
2018-07-08T04:22:14.418Z,2.87
2018-07-08T04:24:16.655Z,3.27
2018-07-08T04:26:18.926Z,2.70
2018-07-08T04:28:21.220Z,2.80
2018-07-08T04:30:23.504Z,2.80
2018-07-08T04:32:25.682Z,2.73
2018-07-08T04:34:27.898Z,2.60
2018-07-08T04:36:30.218Z,2.57
2018-07-08T04:38:33.578Z,2.90
2018-07-08T04:40:36.006Z,2.50
2018-07-08T04:42:38.246Z,2.40
2018-07-08T04:44:40.491Z,2.23
2018-07-08T04:46:42.677Z,2.87
2018-07-08T04:48:44.900Z,2.60
2018-07-08T04:50:47.124Z,2.87
2018-07-08T04:52:49.391Z,2.90
2018-07-08T04:54:51.621Z,2.47
2018-07-08T04:56:53.841Z,2.20
2018-07-08T04:58:56.290Z,2.60
2018-07-08T05:00:58.504Z,2.37
2018-07-08T05:03:00.719Z,2.50
2018-07-08T05:05:02.958Z,2.53
2018-07-08T05:07:05.338Z,2.50
2018-07-08T05:09:07.539Z,2.53
2018-07-08T05:11:09.788Z,2.33
2018-07-08T05:13:12.261Z,2.13
2018-07-08T05:15:14.506Z,2.60
2018-07-08T05:17:16.808Z,2.70
2018-07-08T05:19:19.118Z,2.40
2018-07-08T05:21:21.446Z,2.50
2018-07-08T05:23:23.668Z,2.60
2018-07-08T05:25:26.060Z,2.17
2018-07-08T05:27:28.327Z,2.77
2018-07-08T05:29:30.608Z,2.20
2018-07-08T05:31:32.937Z,2.03
2018-07-08T05:33:35.807Z,2.37
2018-07-08T05:35:38.090Z,2.40
2018-07-08T05:37:40.284Z,2.20
2018-07-08T05:39:42.520Z,2.57
2018-07-08T05:41:44.829Z,2.37
2018-07-08T05:43:47.073Z,2.00
2018-07-08T05:45:49.316Z,2.10
2018-07-08T05:47:51.545Z,2.07
2018-07-08T05:49:53.743Z,2.13
2018-07-08T05:51:55.946Z,2.07
2018-07-08T05:53:58.217Z,2.17
2018-07-08T05:56:00.450Z,2.33
2018-07-08T05:58:02.743Z,2.07
2018-07-08T06:00:05.214Z,2.10
2018-07-08T06:02:07.485Z,2.20
2018-07-08T06:04:09.787Z,2.40
2018-07-08T06:06:12.216Z,2.10
2018-07-08T06:08:14.444Z,2.00
2018-07-08T06:10:16.710Z,2.30
2018-07-08T06:12:18.907Z,2.07
2018-07-08T06:14:21.140Z,2.17
2018-07-08T06:16:23.406Z,2.23
2018-07-08T06:18:25.577Z,1.90
2018-07-08T06:20:27.779Z,1.97
2018-07-08T06:22:30.138Z,2.23
2018-07-08T06:24:32.484Z,2.20
2018-07-08T06:26:34.769Z,2.20
2018-07-08T06:28:37.006Z,2.17
2018-07-08T06:30:39.246Z,1.90
2018-07-08T06:32:41.538Z,2.30
2018-07-08T06:34:43.757Z,1.73
2018-07-08T06:36:46.000Z,2.10
2018-07-08T06:38:48.416Z,1.90
2018-07-08T06:40:50.704Z,2.17
2018-07-08T06:42:52.953Z,2.00
2018-07-08T06:44:55.186Z,1.77
2018-07-08T06:46:57.365Z,2.20
2018-07-08T06:48:59.631Z,1.93
2018-07-08T06:51:01.868Z,2.33
2018-07-08T06:53:04.102Z,2.00
2018-07-08T06:55:06.329Z,1.80
2018-07-08T06:57:08.548Z,2.40
2018-07-08T06:59:10.819Z,1.90
2018-07-08T07:01:13.139Z,2.07
2018-07-08T07:03:15.464Z,2.00
2018-07-08T07:05:17.670Z,1.90
2018-07-08T07:07:19.933Z,2.23
2018-07-08T07:09:22.179Z,2.13
2018-07-08T07:11:24.595Z,2.00
2018-07-08T07:13:26.842Z,1.70
2018-07-08T07:15:29.126Z,1.80
2018-07-08T07:17:31.516Z,1.93
2018-07-08T07:19:33.726Z,1.90
2018-07-08T07:21:36.094Z,2.13
2018-07-08T07:23:38.364Z,1.57
2018-07-08T07:25:40.767Z,1.73
2018-07-08T07:27:43.019Z,1.93
2018-07-08T07:29:45.296Z,2.10
2018-07-08T07:31:47.504Z,1.80
2018-07-08T07:33:49.690Z,1.90
2018-07-08T07:35:51.945Z,2.00
2018-07-08T07:37:54.361Z,2.00
2018-07-08T07:39:56.610Z,1.90
2018-07-08T07:41:58.985Z,1.80
2018-07-08T07:44:01.344Z,1.80
2018-07-08T07:46:03.637Z,1.80
2018-07-08T07:48:05.919Z,1.87
2018-07-08T07:50:08.234Z,1.93
2018-07-08T07:52:10.971Z,1.90
2018-07-08T07:54:13.172Z,1.70
2018-07-08T07:56:15.440Z,2.00
2018-07-08T07:58:17.718Z,2.00
2018-07-08T08:00:19.970Z,1.83
2018-07-08T08:02:22.237Z,2.10
2018-07-08T08:04:24.416Z,1.70
2018-07-08T08:06:26.639Z,1.77
2018-07-08T08:08:28.918Z,1.90
2018-07-08T08:10:31.241Z,2.00
2018-07-08T08:12:33.441Z,2.67
2018-07-08T08:14:35.698Z,1.80
2018-07-08T08:16:37.947Z,2.00
2018-07-08T08:18:40.197Z,1.80
2018-07-08T08:20:42.400Z,1.90
2018-07-08T08:22:44.605Z,1.73
2018-07-08T08:24:46.827Z,2.00
2018-07-08T08:26:49.060Z,1.70
2018-07-08T08:28:51.390Z,1.93
2018-07-08T08:30:53.628Z,1.73
2018-07-08T08:32:56.762Z,1.70
2018-07-08T08:35:02.359Z,1.90
2018-07-08T08:37:04.549Z,2.13
2018-07-08T08:39:06.804Z,1.80
2018-07-08T08:41:08.995Z,1.87
2018-07-08T08:43:11.206Z,1.80
2018-07-08T08:45:14.624Z,2.00
2018-07-08T08:47:17.562Z,1.90
2018-07-08T08:49:19.746Z,1.57
2018-07-08T08:51:22.160Z,1.77
2018-07-08T08:53:24.379Z,1.70
2018-07-08T08:55:26.595Z,1.73
2018-07-08T08:57:28.962Z,1.70
2018-07-08T08:59:32.062Z,1.63
2018-07-08T09:01:34.239Z,1.90
2018-07-08T09:03:36.564Z,1.90
2018-07-08T09:05:38.767Z,1.83
2018-07-08T09:07:41.058Z,2.20
2018-07-08T09:09:43.246Z,1.50
2018-07-08T09:11:45.607Z,1.70
2018-07-08T09:13:47.810Z,1.73
2018-07-08T09:15:50.594Z,1.90
2018-07-08T09:17:53.219Z,1.80
2018-07-08T09:19:55.518Z,2.00
2018-07-08T09:21:57.744Z,1.70
2018-07-08T09:24:00.041Z,1.77
2018-07-08T09:26:02.224Z,1.90
2018-07-08T09:28:04.524Z,2.00
2018-07-08T09:30:06.789Z,2.00
2018-07-08T09:32:08.945Z,1.90
2018-07-08T09:34:11.176Z,1.93
2018-07-08T09:36:13.401Z,1.63
2018-07-08T09:38:15.582Z,1.80
2018-07-08T09:40:17.830Z,1.60
2018-07-08T09:42:20.100Z,1.67
2018-07-08T09:44:22.372Z,1.70
2018-07-08T09:46:24.915Z,1.70
2018-07-08T09:48:27.142Z,1.70
2018-07-08T09:50:29.382Z,1.67
2018-07-08T09:52:31.717Z,2.00
2018-07-08T09:54:33.951Z,1.73
2018-07-08T09:56:36.267Z,1.40
2018-07-08T09:58:38.479Z,1.60
2018-07-08T10:00:40.826Z,1.70
2018-07-08T10:02:43.084Z,1.87
2018-07-08T10:04:45.351Z,1.70
2018-07-08T10:06:48.450Z,1.87
2018-07-08T10:08:50.866Z,1.87
2018-07-08T10:10:53.664Z,1.70
2018-07-08T10:12:56.119Z,1.70
2018-07-08T10:14:58.685Z,2.20
2018-07-08T10:17:01.031Z,1.50
2018-07-08T10:19:03.321Z,1.93
2018-07-08T10:21:05.983Z,1.80
2018-07-08T10:23:08.287Z,1.83
2018-07-08T10:25:10.480Z,1.70
2018-07-08T10:28:20.771Z,1.80
2018-07-08T10:30:23.079Z,1.60
2018-07-08T10:32:25.325Z,1.77
2018-07-08T10:34:27.591Z,2.10
2018-07-08T10:36:29.873Z,2.03
2018-07-08T10:38:32.680Z,1.93
2018-07-08T10:40:34.849Z,1.93
2018-07-08T10:42:37.142Z,1.67
2018-07-08T10:44:39.382Z,2.03
2018-07-08T10:46:42.131Z,1.90
2018-07-08T10:48:44.408Z,2.10
2018-07-08T10:50:46.662Z,2.20
2018-07-08T10:52:48.840Z,1.60
2018-07-08T10:54:51.107Z,2.00
2018-07-08T10:56:54.114Z,2.23
2018-07-08T10:58:56.317Z,2.10
2018-07-08T11:00:59.481Z,2.27
2018-07-08T11:03:01.688Z,2.30
2018-07-08T11:05:03.902Z,2.13
2018-07-08T11:07:06.099Z,2.40
2018-07-08T11:09:08.343Z,2.10
2018-07-08T11:11:10.655Z,2.40
2018-07-08T11:13:12.896Z,2.20
2018-07-08T11:15:15.730Z,2.50
2018-07-08T11:17:18.023Z,2.10
2018-07-08T11:19:20.246Z,2.63
2018-07-08T11:21:22.644Z,2.60
2018-07-08T11:23:24.918Z,2.43
2018-07-08T11:25:27.217Z,2.60
2018-07-08T11:27:30.031Z,2.30
2018-07-08T11:29:32.298Z,2.70
2018-07-08T11:31:34.563Z,2.30
2018-07-08T11:33:36.811Z,2.50
2018-07-08T11:35:39.074Z,2.80
2018-07-08T11:37:41.259Z,2.90
2018-07-08T11:39:43.590Z,3.00
2018-07-08T11:41:45.980Z,3.03
2018-07-08T11:43:48.205Z,2.80
2018-07-08T11:45:50.424Z,3.07
2018-07-08T11:47:52.692Z,2.77
2018-07-08T11:49:55.076Z,3.20
2018-07-08T11:51:57.375Z,3.07
2018-07-08T11:54:00.670Z,3.43
2018-07-08T11:56:02.966Z,2.87
2018-07-08T11:58:05.251Z,3.13
2018-07-08T12:00:08.658Z,3.07
2018-07-08T12:02:10.936Z,2.93
2018-07-08T12:04:13.205Z,3.33
2018-07-08T12:06:16.500Z,3.30
2018-07-08T12:08:18.691Z,3.53
2018-07-08T12:10:20.906Z,3.50
2018-07-08T12:12:23.121Z,3.20
2018-07-08T12:14:26.076Z,3.60
2018-07-08T12:16:28.311Z,3.20
2018-07-08T12:18:30.985Z,3.73
2018-07-08T12:20:33.267Z,3.17
2018-07-08T12:22:35.546Z,3.00
2018-07-08T12:24:37.787Z,3.40
2018-07-08T12:26:40.075Z,3.50
2018-07-08T12:28:42.463Z,3.50
2018-07-08T12:30:44.831Z,3.20
2018-07-08T12:32:48.162Z,4.00
2018-07-08T12:34:50.426Z,3.50
2018-07-08T12:36:52.672Z,3.60
2018-07-08T12:38:54.977Z,3.50
2018-07-08T12:40:57.192Z,3.30
2018-07-08T12:42:59.754Z,3.67
2018-07-08T12:45:02.114Z,3.60
2018-07-08T12:47:04.889Z,3.50
2018-07-08T12:49:07.496Z,3.57
2018-07-08T12:51:09.724Z,4.00
2018-07-08T12:53:12.892Z,4.07
2018-07-08T12:55:15.077Z,3.90
2018-07-08T12:57:17.324Z,4.67
2018-07-08T12:59:19.521Z,4.40
2018-07-08T13:01:21.727Z,4.57
2018-07-08T13:03:23.958Z,4.60
2018-07-08T13:05:26.178Z,4.20
2018-07-08T13:07:28.491Z,4.37
2018-07-08T13:09:30.719Z,4.97
2018-07-08T13:11:32.934Z,4.90
2018-07-08T13:13:35.245Z,4.83
2018-07-08T13:15:37.472Z,4.93
2018-07-08T13:17:39.732Z,4.77
2018-07-08T13:19:41.929Z,4.80
2018-07-08T13:21:44.758Z,5.00
2018-07-08T13:23:46.973Z,4.70
2018-07-08T13:25:49.231Z,4.77
2018-07-08T13:27:51.483Z,4.90
2018-07-08T13:29:53.719Z,4.97
2018-07-08T13:31:55.939Z,5.10
2018-07-08T13:33:58.171Z,5.10
2018-07-08T13:36:00.408Z,5.20
2018-07-08T13:38:03.249Z,4.83
2018-07-08T13:40:05.596Z,5.00
2018-07-08T13:42:07.883Z,4.97
2018-07-08T13:44:11.370Z,4.60
2018-07-08T13:46:13.540Z,4.53
2018-07-08T13:48:15.789Z,4.80
2018-07-08T13:50:18.008Z,5.00
2018-07-08T13:52:20.202Z,4.80
2018-07-08T13:54:22.436Z,4.90
2018-07-08T13:56:24.640Z,4.47
2018-07-08T13:58:26.862Z,4.67
2018-07-08T14:00:29.539Z,4.63
2018-07-08T14:02:31.742Z,4.67
2018-07-08T14:04:34.034Z,4.10
2018-07-08T14:06:36.209Z,4.63
2018-07-08T14:08:38.419Z,4.40
2018-07-08T14:10:40.614Z,4.47
2018-07-08T14:12:42.785Z,3.97
2018-07-08T14:14:45.121Z,4.23
2018-07-08T14:16:47.318Z,4.80
2018-07-08T14:18:49.529Z,4.70
2018-07-08T14:20:51.845Z,4.60
2018-07-08T14:22:53.945Z,4.30
2018-07-08T14:24:56.126Z,4.13
2018-07-08T14:26:58.337Z,4.13
2018-07-08T14:29:00.595Z,4.17
2018-07-08T14:31:02.868Z,4.13
2018-07-08T14:33:05.250Z,4.00
2018-07-08T14:35:07.865Z,4.43
2018-07-08T14:37:10.095Z,4.30
2018-07-08T14:39:12.292Z,4.33
2018-07-08T14:41:14.522Z,4.20
2018-07-08T14:43:16.801Z,3.70
2018-07-08T14:45:19.267Z,4.23
2018-07-08T14:47:21.546Z,4.17
2018-07-08T14:49:23.791Z,3.90
2018-07-08T14:51:26.847Z,3.93
2018-07-08T14:53:29.043Z,3.80
2018-07-08T14:55:31.348Z,3.83
2018-07-08T14:57:33.554Z,3.80
2018-07-08T14:59:35.804Z,3.60
2018-07-08T15:01:38.054Z,3.60
2018-07-08T15:03:40.280Z,3.57
2018-07-08T15:05:42.519Z,3.87
2018-07-08T15:07:44.732Z,3.97
2018-07-08T15:09:46.906Z,3.90
2018-07-08T15:11:49.114Z,3.80
2018-07-08T15:13:51.534Z,3.90
2018-07-08T15:15:55.363Z,3.60
2018-07-08T15:17:58.706Z,4.07
2018-07-08T15:20:00.924Z,3.87
2018-07-08T15:22:03.186Z,3.63
2018-07-08T15:24:05.373Z,3.53
2018-07-08T15:26:07.653Z,3.70
2018-07-08T15:28:09.819Z,3.80
2018-07-08T15:30:11.979Z,3.57
2018-07-08T15:32:14.315Z,3.60
2018-07-08T15:34:16.512Z,3.57
2018-07-08T15:36:18.721Z,3.53
2018-07-08T15:38:20.927Z,3.50
2018-07-08T15:40:23.163Z,3.60
2018-07-08T15:42:25.418Z,3.83
2018-07-08T15:44:27.678Z,4.10
2018-07-08T15:46:29.862Z,3.23
2018-07-08T15:48:32.578Z,3.40
2018-07-08T15:50:34.783Z,3.40
2018-07-08T15:52:36.980Z,3.60
2018-07-08T15:54:39.570Z,3.40
2018-07-08T15:56:42.022Z,3.63
2018-07-08T15:58:44.391Z,3.50
2018-07-08T16:00:46.776Z,3.03
2018-07-08T16:02:49.122Z,3.47
2018-07-08T16:04:51.447Z,3.27
2018-07-08T16:06:54.269Z,3.33
2018-07-08T16:08:56.572Z,3.20
2018-07-08T16:10:58.822Z,3.23
2018-07-08T16:13:01.169Z,3.00
2018-07-08T16:15:03.646Z,3.37
2018-07-08T16:17:05.862Z,3.50
2018-07-08T16:19:08.126Z,2.83
2018-07-08T16:21:10.375Z,3.23
2018-07-08T16:23:12.691Z,3.30
2018-07-08T16:25:15.235Z,3.00
2018-07-08T16:27:17.463Z,2.63
2018-07-08T16:29:19.846Z,3.33
2018-07-08T16:31:22.120Z,2.93
2018-07-08T16:33:24.466Z,3.30
2018-07-08T16:35:26.775Z,3.00
2018-07-08T16:37:29.017Z,2.80
2018-07-08T16:39:31.240Z,3.17
2018-07-08T16:41:33.553Z,3.00
2018-07-08T16:43:36.017Z,3.00
2018-07-08T16:45:39.147Z,3.00
2018-07-08T16:47:41.456Z,3.23
2018-07-08T16:49:44.245Z,3.07
2018-07-08T16:51:47.147Z,3.00
2018-07-08T16:53:49.540Z,2.93
2018-07-08T16:55:51.932Z,2.90
2018-07-08T16:57:54.321Z,3.17
2018-07-08T16:59:56.646Z,3.23
2018-07-08T17:01:59.089Z,2.87
2018-07-08T17:04:01.613Z,2.70
2018-07-08T17:06:04.098Z,2.80
2018-07-08T17:08:07.006Z,2.60
2018-07-08T17:10:09.458Z,2.90
2018-07-08T17:12:11.891Z,2.80
2018-07-08T17:14:14.478Z,2.60
2018-07-08T17:16:16.844Z,2.60
2018-07-08T17:18:19.304Z,2.90
2018-07-08T17:20:22.072Z,2.80
2018-07-08T17:22:25.836Z,2.77
2018-07-08T17:24:28.105Z,2.80
2018-07-08T17:26:30.805Z,3.10
2018-07-08T17:28:32.982Z,2.43
2018-07-08T17:30:36.088Z,2.80
2018-07-08T17:32:39.618Z,2.70
2018-07-08T17:34:44.133Z,2.93
2018-07-08T17:36:46.469Z,2.90
2018-07-08T17:38:48.885Z,2.97
2018-07-08T17:40:51.301Z,2.63
2018-07-08T17:42:53.511Z,2.50
2018-07-08T17:44:55.761Z,2.77
2018-07-08T17:46:58.312Z,3.13
2018-07-08T17:49:00.579Z,2.80
2018-07-08T17:51:02.765Z,2.90
2018-07-08T17:53:05.029Z,2.93
2018-07-08T17:55:07.311Z,2.67
2018-07-08T17:57:09.561Z,2.80
2018-07-08T17:59:11.737Z,2.40
2018-07-08T18:01:13.949Z,3.03
2018-07-08T18:03:16.228Z,2.30
2018-07-08T18:05:18.509Z,2.60
2018-07-08T18:07:20.767Z,2.80
2018-07-08T18:09:23.030Z,2.77
2018-07-08T18:11:25.230Z,2.83
2018-07-08T18:13:28.880Z,2.80
2018-07-08T18:15:31.229Z,2.80
2018-07-08T18:17:33.547Z,2.57
2018-07-08T18:19:35.982Z,2.43
2018-07-08T18:21:38.881Z,2.83
2018-07-08T18:23:41.211Z,3.00
2018-07-08T18:25:43.459Z,2.73
2018-07-08T18:27:45.708Z,2.80
2018-07-08T18:29:47.927Z,2.60
2018-07-08T18:31:50.111Z,2.40
2018-07-08T18:33:52.300Z,2.30
2018-07-08T18:35:54.590Z,2.50
2018-07-08T18:37:56.870Z,2.50
2018-07-08T18:39:59.134Z,2.63
2018-07-08T18:42:01.440Z,2.57
2018-07-08T18:44:03.730Z,2.43
2018-07-08T18:46:06.028Z,2.50
2018-07-08T18:48:20.247Z,2.43
2018-07-08T18:53:08.425Z,2.53
2018-07-08T18:55:10.726Z,2.33
2018-07-08T18:57:12.966Z,2.70
2018-07-08T18:59:15.214Z,2.70
2018-07-08T19:01:17.478Z,2.33
2018-07-08T19:03:19.704Z,2.83
2018-07-08T19:05:21.954Z,2.70
2018-07-08T19:07:24.171Z,2.50
2018-07-08T19:09:26.344Z,2.60
2018-07-08T19:11:28.543Z,2.60
2018-07-08T19:13:30.766Z,2.30
2018-07-08T19:15:32.973Z,2.20
2018-07-08T19:17:35.261Z,2.90
2018-07-08T19:19:37.586Z,2.60
2018-07-08T19:21:40.020Z,2.77
2018-07-08T19:23:42.715Z,2.37
2018-07-08T19:25:45.022Z,2.93
2018-07-08T19:27:47.254Z,2.93
2018-07-08T19:29:49.513Z,2.80
2018-07-08T19:31:52.227Z,2.70
2018-07-08T19:33:54.409Z,2.30
2018-07-08T19:35:56.679Z,2.70
2018-07-08T19:37:58.984Z,2.33
2018-07-08T19:40:01.401Z,2.77
2018-07-08T19:42:03.645Z,2.50
2018-07-08T19:44:06.041Z,2.40
2018-07-08T19:46:08.358Z,2.70
2018-07-08T19:48:10.797Z,2.50
2018-07-08T19:50:13.064Z,2.40
2018-07-08T19:52:15.326Z,2.20
2018-07-08T19:54:17.582Z,2.87
2018-07-08T19:56:19.787Z,2.60
2018-07-08T19:58:26.335Z,2.60
2018-07-08T20:00:28.601Z,2.73
2018-07-08T20:02:30.894Z,2.60
2018-07-08T20:04:33.178Z,2.73
2018-07-08T20:06:35.527Z,2.30
2018-07-08T20:08:37.916Z,2.70
2018-07-08T20:10:40.223Z,2.50
2018-07-08T20:12:42.482Z,2.70
2018-07-08T20:14:44.841Z,2.20
2018-07-08T20:16:47.128Z,2.60
2018-07-08T20:18:49.348Z,2.60
2018-07-08T20:20:51.646Z,2.40
2018-07-08T20:22:54.177Z,2.83
2018-07-08T20:24:56.416Z,2.67
2018-07-08T20:26:58.728Z,2.60
2018-07-08T20:29:01.124Z,2.80
2018-07-08T20:31:03.434Z,2.33
2018-07-08T20:33:05.659Z,2.67
2018-07-08T20:35:08.357Z,2.60
2018-07-08T20:37:11.656Z,2.63
2018-07-08T20:39:13.895Z,2.30
2018-07-08T20:41:16.159Z,2.57
2018-07-08T20:43:18.391Z,2.60
2018-07-08T20:45:20.692Z,2.73
2018-07-08T20:47:23.337Z,2.67
2018-07-08T20:49:26.416Z,2.83
2018-07-08T20:51:28.639Z,2.50
2018-07-08T20:53:30.984Z,2.40
2018-07-08T20:55:33.664Z,2.80
2018-07-08T20:57:36.523Z,2.40
2018-07-08T20:59:39.052Z,2.60
2018-07-08T21:01:41.745Z,2.80
2018-07-08T21:03:44.095Z,2.50
2018-07-08T21:05:46.430Z,2.60
2018-07-08T21:07:49.958Z,2.63
2018-07-08T21:09:52.206Z,2.90
2018-07-08T21:11:55.013Z,2.60
2018-07-08T21:13:57.436Z,2.70
2018-07-08T21:15:59.758Z,2.60
2018-07-08T21:18:02.043Z,2.53
2018-07-08T21:20:04.270Z,2.90
2018-07-08T21:22:06.505Z,2.67
2018-07-08T21:24:08.763Z,2.57
2018-07-08T21:26:11.064Z,2.80
2018-07-08T21:28:13.346Z,2.70
2018-07-08T21:30:15.635Z,2.60
2018-07-08T21:32:17.927Z,2.70
2018-07-08T21:34:20.316Z,2.13
2018-07-08T21:36:23.300Z,2.50
2018-07-08T21:38:26.939Z,2.70
2018-07-08T21:40:29.272Z,2.70
2018-07-08T21:42:31.468Z,2.63
2018-07-08T21:44:33.755Z,2.50
2018-07-08T21:46:36.064Z,2.70
2018-07-08T21:48:38.276Z,2.33
2018-07-08T21:50:40.588Z,2.40
2018-07-08T21:52:42.943Z,2.50
2018-07-08T21:54:45.596Z,2.50
2018-07-08T21:56:47.845Z,2.43
2018-07-08T21:58:50.501Z,2.80
2018-07-08T22:00:58.122Z,2.50
2018-07-08T22:03:00.906Z,2.60
2018-07-08T22:05:03.273Z,2.40
2018-07-08T22:07:10.859Z,2.20
2018-07-08T22:09:23.620Z,2.33
2018-07-08T22:11:26.384Z,2.60
2018-07-08T22:13:28.644Z,2.40
2018-07-08T22:15:30.876Z,2.40
2018-07-08T22:17:33.037Z,2.23
2018-07-08T22:19:35.402Z,2.23
2018-07-08T22:21:38.130Z,2.43
2018-07-08T22:23:40.363Z,2.50
2018-07-08T22:25:42.653Z,2.50
2018-07-08T22:27:44.941Z,2.40
2018-07-08T22:29:47.390Z,2.10
2018-07-08T22:31:49.776Z,2.30
2018-07-08T22:33:51.970Z,2.60
2018-07-08T22:35:54.344Z,2.40
2018-07-08T22:37:56.657Z,2.30
2018-07-08T22:39:58.979Z,2.30
2018-07-08T22:42:01.289Z,2.47
2018-07-08T22:44:03.651Z,2.43
2018-07-08T22:46:05.925Z,2.50
2018-07-08T22:48:08.184Z,2.20
2018-07-08T22:50:10.384Z,2.30
2018-07-08T22:52:12.634Z,2.53
2018-07-08T22:54:15.113Z,2.10
2018-07-08T22:56:17.308Z,2.70
2018-07-08T22:58:20.101Z,2.30
2018-07-08T23:00:27.884Z,3.00
2018-07-08T23:02:36.308Z,2.50
2018-07-08T23:04:38.796Z,2.53
2018-07-08T23:06:41.934Z,2.50
2018-07-08T23:08:44.742Z,2.30
2018-07-08T23:10:47.005Z,2.67
2018-07-08T23:12:49.336Z,2.50
2018-07-08T23:14:51.598Z,2.27
2018-07-08T23:16:53.871Z,2.40
2018-07-08T23:18:56.130Z,2.33
2018-07-08T23:20:58.326Z,2.40
2018-07-08T23:23:00.580Z,2.40
2018-07-08T23:25:02.843Z,2.27
2018-07-08T23:27:05.503Z,2.50
2018-07-08T23:29:07.720Z,2.57
2018-07-08T23:31:10.972Z,2.23
2018-07-08T23:33:13.666Z,2.30
2018-07-08T23:35:16.058Z,2.30
2018-07-08T23:37:18.284Z,2.80
2018-07-08T23:39:20.519Z,2.50
2018-07-08T23:41:22.779Z,2.20
2018-07-08T23:43:25.005Z,2.70
2018-07-08T23:45:27.255Z,2.80
2018-07-08T23:47:29.518Z,3.00
2018-07-08T23:49:31.718Z,2.77
2018-07-08T23:51:33.970Z,2.77
2018-07-08T23:53:36.189Z,2.90
2018-07-08T23:55:38.441Z,2.80
2018-07-08T23:57:40.679Z,3.20
2018-07-08T23:59:42.845Z,3.20
